• Join FlightAware (Why Join?)
  • Login
  • US Flag 
09:44AM EDT


 

Airport Tracker/Info


-or-


 

Live Flight TrackerFlight Track Log ✈ N55177 ✈ 14-Jul-2013 ✈ KEYW - MYBS / BIM

Flight Track Log - Related Links

Times and Time Zones

All times are in EDT time to prevent confusion due to time zone crossing. See the N55177 flight status page for this flight to view local times or setup timezone preferences in your user account.

Time Position Orientation Groundspeed Altitude Reporting Facility
EDT Latitude Longitude Course Direction KTS MPH feet Rate Location/Type
10:39AM 24.8003 -81.0611 55° Northeast 116 133 3,500  Level Miami Center
10:40AM 24.8200 -81.0300 55° Northeast 116 133 3,500  Level Miami Center
10:41AM 24.8375 -80.9983 59° Northeast 116 133 3,500  Level Miami Center
10:42AM 24.8553 -80.9647 60° Northeast 116 133 3,500 -60 Level Miami Center
10:43AM 24.8708 -80.9308 63° Northeast 116 133 3,400 -60 Descending Miami Center
10:44AM 24.8861 -80.9017 60° Northeast 116 133 3,400  Level Miami Center
10:45AM 24.8975 -80.8678 70° East 111 128 3,400  Level Miami Center
10:46AM 24.9131 -80.8339 63° Northeast 111 128 3,500  Climbing Miami Center
10:47AM 24.9306 -80.8044 57° Northeast 111 128 3,500  Level Miami Center
10:48AM 24.9503 -80.7753 53° Northeast 111 128 3,500 -60 Level Miami Center
10:49AM 24.9656 -80.7439 62° Northeast 106 122 3,400  Descending Miami Center
10:50AM 24.9811 -80.7122 62° Northeast 111 128 3,500  Climbing Miami Center
10:51AM 24.9964 -80.6828 60° Northeast 111 128 3,500  Level Miami Center
10:52AM 25.0139 -80.6536 56° Northeast 111 128 3,500 -60 Level Miami Center
10:53AM 25.0333 -80.6244 54° Northeast 111 128 3,400 -60 Descending Miami Center
10:54AM 25.0467 -80.5928 65° Northeast 111 128 3,400  Level Miami Center
10:55AM 25.0664 -80.5636 53° Northeast 111 128 3,400  Level Miami Center
10:56AM 25.0839 -80.5319 59° Northeast 116 133 3,400  Level Miami Center
10:57AM 25.0972 -80.4981 67° East 116 133 3,400  Level Miami Center
10:58AM 25.1106 -80.4661 65° Northeast 116 133 3,400  Level Miami Center
10:59AM 25.1217 -80.4322 70° East 111 128 3,400  Level Miami Center
11:00AM 25.1350 -80.4006 65° Northeast 111 128 3,500  Climbing Miami Center
11:01AM 25.1525 -80.3689 59° Northeast 111 128 3,400 -60 Descending Miami Center
11:02AM 25.1658 -80.3347 67° East 111 128 3,400  Level Miami Center
11:03AM 25.1833 -80.3056 56° Northeast 111 128 3,500  Climbing Miami Center
11:04AM 25.2008 -80.2714 60° Northeast 111 128 3,500 -60 Level Miami Center
11:05AM 25.2203 -80.2444 51° Northeast 116 133 3,400 -60 Descending Miami Center
11:06AM 25.2397 -80.2128 56° Northeast 116 133 3,400 720 Level Miami Center
11:07AM 25.2572 -80.1811 59° Northeast 116 133 4,900  Climbing Miami Center
11:08AM 25.2744 -80.1494 59° Northeast 116 133 3,400 -780 Descending Miami Center
11:09AM 25.2919 -80.1178 59° Northeast 116 133 3,400  Level Miami Center
11:10AM 25.3072 -80.0861 62° Northeast 116 133 3,400  Level Miami Center
11:11AM 25.3269 -80.0519 57° Northeast 116 133 3,400  Level Miami Center
11:12AM 25.3422 -80.0225 60° Northeast 116 133 3,500  Climbing Miami Center
11:13AM 25.3575 -79.9908 62° Northeast 116 133 3,400  Descending Miami Center
11:14AM 25.3747 -79.9567 61° Northeast 116 133 3,500  Climbing Miami Center
11:15AM 25.3881 -79.9247 65° Northeast 111 128 3,500  Level Miami Center
11:16AM 25.4056 -79.8908 60° Northeast 111 128 3,500 -60 Level Miami Center
11:17AM 25.4208 -79.8589 62° Northeast 111 128 3,400 -60 Descending Miami Center
11:18AM 25.4381 -79.8272 59° Northeast 111 128 3,400  Level Miami Center
11:19AM 25.4472 -79.7953 72° East 111 128 3,400  Level Miami Center
11:20AM 25.4644 -79.7633 59° Northeast 111 128 3,400  Level Miami Center
11:21AM 25.4775 -79.7317 65° Northeast 111 128 3,400  Level Miami Center
11:22AM 25.4950 -79.6975 60° Northeast 111 128 3,400  Level Miami Center
11:23AM 25.5144 -79.6656 56° Northeast 111 128 3,400  Level Miami Center
11:24AM 25.5275 -79.6361 64° Northeast 111 128 3,400  Level Miami Center
11:25AM 25.5469 -79.6042 56° Northeast 111 128 3,500  Climbing Miami Center
11:26AM 25.5642 -79.5725 59° Northeast 111 128 3,500  Level Miami Center